KEUL

Caldwell Industrial Airport

Caldwell, Idaho, USA
METAR KEUL 260256Z AUTO 10012G18KT 10SM BKN065 OVC095 02/M03 A2988 RMK AO2 SLP139 T00171028 56019 FZRANO
Observed Flight Rules
Feb-26 @ 02:56 UTC (32 minutes ago) Visual Flight Rules
Wind Visibility Clouds
100° at 12 knots
 Gusting to 18 knots
10 miles
  • Broken at 6,500' AGL
  • Overcast at 9,500' AGL
Temperatures Readings
Current 2°C / 36°F
Dewpoint -3°C / 27°F
Humidity 70%
Altimeter 29.88" Hg
Pressure 1013.9 hPa
Elevation 740
METAR KEUL 260256Z AUTO 10012G18KT 10SM BKN065 OVC095 02/M03 A2988 RMK AO2 SLP139 T00171028 56019 FZRANO
Observed Flight Rules
Feb-26 @ 02:56 UTC
(32 minutes ago)
VFR
Wind Visibility
100° at 12 knots
 Gusting to 18 knots
10 miles
Clouds
  • Broken at 6,500' AGL
  • Overcast at 9,500' AGL
Temperature Dewpoint
2°C / 36°F -3°C / 27°F
Humidity Altimeter Pressure
70% 29.88" Hg 1013.9 hPa